Time;durP1;ratioP1;P1;durP2;ratioP2;P2;SDS_P1;SDS_P2;PMS_P1;PMS_P2;Temp;Humidity;BMP_temperature;BMP_pressure;BME280_temperature;BME280_humidity;BME280_pressure;Samples;Min_cycle;Max_cycle;Signal;HPM_P1;HPM_P2
2022/03/17 00:00:10;;;;;;;5.45;3.90;;;;;;;15.31;46.66;97480.69;5030738;28;20033;-28
2022/03/17 00:02:36;;;;;;;5.13;3.78;;;;;;;15.34;46.42;97480.56;5030463;28;20037;-26
2022/03/17 00:05:03;;;;;;;5.60;3.83;;;;;;;15.35;46.63;97482.09;5030604;28;20128;-27
2022/03/17 00:07:30;;;;;;;7.35;4.25;;;;;;;15.36;46.55;97477.41;5029819;28;20037;-26
2022/03/17 00:09:55;;;;;;;4.43;3.63;;;;;;;15.34;46.42;97485.25;5030959;28;20032;-27
2022/03/17 00:12:21;;;;;;;6.53;4.03;;;;;;;15.38;46.37;97481.25;5031137;28;20104;-28
2022/03/17 00:14:47;;;;;;;5.30;3.80;;;;;;;15.39;46.28;97477.31;5027754;28;20136;-27
2022/03/17 00:17:13;;;;;;;6.35;3.80;;;;;;;15.37;46.66;97487.13;5028620;28;20443;-27
2022/03/17 00:19:38;;;;;;;6.43;3.83;;;;;;;15.33;46.53;97476.28;5030582;28;20029;-28
2022/03/17 00:22:06;;;;;;;5.25;3.90;;;;;;;15.36;46.36;97480.91;5030863;28;20034;-28
2022/03/17 00:24:32;;;;;;;4.88;3.90;;;;;;;15.36;46.51;97477.41;5030985;28;20029;-26
2022/03/17 00:26:59;;;;;;;6.13;3.92;;;;;;;15.32;46.40;97472.06;5030900;28;20025;-27
2022/03/17 00:29:24;;;;;;;5.60;3.90;;;;;;;15.33;46.40;97462.63;5031093;28;20056;-27
2022/03/17 00:31:50;;;;;;;6.90;4.10;;;;;;;15.31;46.48;97467.03;5030884;28;20072;-29
2022/03/17 00:34:16;;;;;;;7.03;3.88;;;;;;;15.27;46.76;97469.84;5030919;28;20029;-27
2022/03/17 00:36:41;;;;;;;8.35;4.38;;;;;;;15.31;46.40;97459.59;5030926;28;20378;-27
2022/03/17 00:39:09;;;;;;;4.97;4.00;;;;;;;15.25;46.71;97461.31;5031175;28;20179;-26
2022/03/17 00:41:35;;;;;;;5.82;3.70;;;;;;;15.30;46.47;97457.28;5030785;28;20116;-27
2022/03/17 00:44:01;;;;;;;5.88;3.90;;;;;;;15.34;46.26;97458.69;5034610;28;20168;-26
2022/03/17 00:46:27;;;;;;;9.13;4.07;;;;;;;15.33;46.46;97468.09;5034681;28;20028;-28
2022/03/17 00:48:53;;;;;;;6.75;3.85;;;;;;;15.23;46.65;97458.22;5034723;28;20486;-27
2022/03/17 00:51:18;;;;;;;8.20;4.15;;;;;;;15.27;46.57;97452.66;5034714;28;20033;-26
2022/03/17 00:53:45;;;;;;;5.95;3.63;;;;;;;15.28;46.37;97448.75;5033029;28;20386;-27
2022/03/17 00:56:11;;;;;;;7.60;3.88;;;;;;;15.34;46.15;97436.84;5033191;28;20083;-27
2022/03/17 00:58:37;;;;;;;6.28;3.72;;;;;;;15.33;46.30;97438.03;5034641;28;20056;-26
2022/03/17 01:01:03;;;;;;;7.18;4.00;;;;;;;15.34;46.17;97430.59;5034614;28;20026;-27
2022/03/17 01:03:29;;;;;;;6.25;4.10;;;;;;;15.31;46.25;97432.25;5034094;28;20362;-27
2022/03/17 01:05:54;;;;;;;6.22;3.13;;;;;;;15.27;46.44;97431.56;5033785;28;20390;-26
2022/03/17 01:08:20;;;;;;;7.03;3.85;;;;;;;15.32;46.22;97430.28;5029351;28;20025;-27
2022/03/17 01:10:46;;;;;;;6.32;3.63;;;;;;;15.30;46.42;97421.75;5034344;28;20041;-27
2022/03/17 01:13:11;;;;;;;4.25;3.25;;;;;;;15.21;46.74;97427.84;5034276;28;20029;-27
2022/03/17 01:15:37;;;;;;;6.20;3.63;;;;;;;15.31;46.47;97431.50;5032759;28;20029;-27
2022/03/17 01:18:02;;;;;;;6.78;3.40;;;;;;;15.25;46.49;97425.78;5034004;28;20021;-26
2022/03/17 01:20:29;;;;;;;5.00;3.22;;;;;;;15.31;46.46;97421.31;5029107;28;20052;-26
2022/03/17 01:22:55;;;;;;;7.95;3.65;;;;;;;15.30;46.40;97425.25;5035871;28;20025;-27
2022/03/17 01:25:21;;;;;;;5.68;3.70;;;;;;;15.33;46.46;97418.91;5036027;28;20466;-26
2022/03/17 01:27:47;;;;;;;5.55;3.60;;;;;;;15.30;46.39;97425.25;5035981;28;20055;-26
2022/03/17 01:30:12;;;;;;;5.47;3.20;;;;;;;15.28;46.39;97424.91;5035933;28;20033;-28
2022/03/17 01:32:38;;;;;;;5.20;3.40;;;;;;;15.28;46.37;97421.41;5034525;28;20496;-27
2022/03/17 01:35:07;;;;;;;9.82;3.65;;;;;;;15.31;46.38;97415.84;5035768;28;20386;-27
2022/03/17 01:37:33;;;;;;;5.82;3.55;;;;;;;15.29;46.34;97404.59;5035791;28;20035;-27
2022/03/17 01:39:59;;;;;;;3.63;3.10;;;;;;;15.28;46.51;97405.78;5036035;28;20107;-27
2022/03/17 01:42:24;;;;;;;5.00;3.20;;;;;;;15.27;46.51;97404.25;5035794;28;20467;-28
2022/03/17 01:44:50;;;;;;;6.00;3.28;;;;;;;15.29;46.30;97399.13;5035444;28;20018;-27
2022/03/17 01:47:29;;;;;;;4.05;3.00;;;;;;;15.26;46.51;97402.72;5035609;28;20025;-27
2022/03/17 01:49:56;;;;;;;4.45;3.97;;;;;;;15.29;46.30;97395.63;5034272;28;20032;-27
2022/03/17 01:52:22;;;;;;;6.00;2.97;;;;;;;15.30;46.23;97384.25;5035642;28;20021;-29
2022/03/17 01:54:48;;;;;;;5.90;3.20;;;;;;;15.26;46.59;97385.56;5035200;28;20024;-28
2022/03/17 01:57:14;;;;;;;7.80;3.50;;;;;;;15.27;46.42;97374.19;5035291;28;20025;-27
2022/03/17 01:59:40;;;;;;;4.55;3.20;;;;;;;15.30;46.47;97376.06;5035471;28;20025;-27
2022/03/17 02:02:08;;;;;;;5.53;3.55;;;;;;;15.27;45.79;97371.47;5035261;28;20041;-27
2022/03/17 02:04:35;;;;;;;3.97;3.13;;;;;;;15.30;46.47;97367.88;5035224;28;20467;-27
2022/03/17 02:07:03;;;;;;;5.45;3.15;;;;;;;15.31;46.23;97365.91;5035371;28;20096;-27
2022/03/17 02:09:29;;;;;;;3.90;3.22;;;;;;;15.24;46.50;97361.38;5035168;28;20025;-26
2022/03/17 02:14:49;;;;;;;5.13;2.95;;;;;;;15.27;46.50;97346.88;5035329;28;20071;-27
2022/03/17 02:17:14;;;;;;;4.47;3.25;;;;;;;15.23;46.51;97346.19;5035194;28;20540;-28
2022/03/17 02:19:40;;;;;;;7.90;3.55;;;;;;;15.24;46.79;97349.69;5034912;28;20065;-26
2022/03/17 02:22:10;;;;;;;5.90;3.83;;;;;;;15.25;46.56;97345.75;5034767;28;20056;-27
2022/03/17 02:27:20;;;;;;;4.82;3.40;;;;;;;15.23;46.61;97343.47;5034793;28;20506;-26
2022/03/17 02:29:46;;;;;;;4.25;3.08;;;;;;;15.21;46.55;97345.84;5034844;28;20451;-26
2022/03/17 02:32:12;;;;;;;6.28;3.40;;;;;;;15.28;46.46;97345.66;5034669;28;20040;-27
2022/03/17 02:34:38;;;;;;;5.93;3.30;;;;;;;15.27;46.38;97349.59;5033701;28;20355;-28
2022/03/17 02:37:04;;;;;;;5.20;3.22;;;;;;;15.25;46.33;97341.06;5034493;28;20029;-28
2022/03/17 02:39:29;;;;;;;4.90;3.15;;;;;;;15.25;46.60;97345.75;5034561;28;20021;-27
2022/03/17 02:41:55;;;;;;;5.45;3.45;;;;;;;15.27;46.33;97355.06;5034684;28;20409;-27
2022/03/17 02:44:21;;;;;;;5.22;3.60;;;;;;;15.27;46.31;97349.59;5034416;28;20079;-27
2022/03/17 02:46:46;;;;;;;5.18;3.28;;;;;;;15.26;46.36;97342.59;5033123;28;20117;-27
2022/03/17 02:49:15;;;;;;;4.25;3.10;;;;;;;15.18;46.71;97333.06;5034571;28;20072;-26
2022/03/17 02:51:42;;;;;;;6.28;3.58;;;;;;;15.24;46.62;97333.28;5034205;28;20029;-27
2022/03/17 02:54:07;;;;;;;5.80;3.83;;;;;;;15.29;46.17;97333.53;5034273;28;20025;-26
2022/03/17 02:56:33;;;;;;;5.82;3.42;;;;;;;15.31;46.29;97331.13;5034134;28;20026;-26
2022/03/17 02:58:59;;;;;;;7.18;3.45;;;;;;;15.29;46.24;97335.50;5034279;28;20112;-27
2022/03/17 03:01:25;;;;;;;5.97;4.30;;;;;;;15.26;46.54;97325.44;5034064;28;20025;-27
2022/03/17 03:03:50;;;;;;;5.13;3.53;;;;;;;15.24;46.46;97323.13;5034059;28;20139;-27
2022/03/17 03:06:16;;;;;;;6.97;3.45;;;;;;;15.22;46.61;97324.75;5033808;28;20049;-28
2022/03/17 03:08:42;;;;;;;6.47;3.75;;;;;;;15.24;46.20;97323.13;5033968;28;20112;-27
2022/03/17 03:11:08;;;;;;;5.03;3.30;;;;;;;15.28;46.21;97315.59;5034096;28;20144;-28
2022/03/17 03:13:34;;;;;;;5.90;3.75;;;;;;;15.22;46.37;97324.75;5033998;28;20026;-27
2022/03/17 03:16:01;;;;;;;5.03;3.45;;;;;;;15.24;46.44;97317.66;5033859;28;20036;-27
2022/03/17 03:18:27;;;;;;;4.93;3.35;;;;;;;15.32;46.11;97326.44;5033881;28;20033;-26
2022/03/17 03:20:53;;;;;;;5.60;3.80;;;;;;;15.27;46.30;97330.47;5025792;28;20022;-28
2022/03/17 03:23:18;;;;;;;5.32;4.00;;;;;;;15.26;46.17;97331.66;5012332;28;20394;-26
2022/03/17 03:25:44;;;;;;;8.20;4.00;;;;;;;15.22;46.39;97330.22;5033613;28;20017;-26
2022/03/17 03:28:10;;;;;;;8.45;3.92;;;;;;;15.28;46.22;97334.72;5033452;28;20485;-27
2022/03/17 03:30:37;;;;;;;7.10;3.45;;;;;;;15.31;46.01;97333.88;5033670;28;20029;-26
2022/03/17 03:33:05;;;;;;;5.95;3.95;;;;;;;15.33;46.09;97336.91;5033811;28;20025;-27
2022/03/17 03:38:15;;;;;;;6.50;3.75;;;;;;;15.24;46.29;97342.25;5033438;28;20116;-27
2022/03/17 03:40:41;;;;;;;4.18;3.47;;;;;;;15.25;46.18;97351.22;5033545;28;20104;-27
2022/03/17 03:43:06;;;;;;;4.90;3.80;;;;;;;15.27;46.03;97349.59;5033574;28;20048;-27
2022/03/17 03:45:32;;;;;;;5.57;3.90;;;;;;;15.29;46.00;97349.16;5033316;28;20055;-26
2022/03/17 03:47:58;;;;;;;7.40;3.80;;;;;;;15.28;45.93;97340.19;5033399;28;20025;-27
2022/03/17 03:50:25;;;;;;;4.85;3.53;;;;;;;15.22;46.06;97339.19;5033126;28;20021;-28
2022/03/17 03:52:51;;;;;;;5.95;3.45;;;;;;;15.25;45.96;97335.59;5033433;28;20060;-26
2022/03/17 03:55:17;;;;;;;5.65;3.70;;;;;;;15.20;46.11;97335.38;5033333;28;20470;-26
2022/03/17 03:57:43;;;;;;;6.35;3.60;;;;;;;15.21;46.22;97337.66;5033229;28;20104;-27
2022/03/17 04:02:55;;;;;;;7.40;3.70;;;;;;;15.23;46.16;97326.28;5033385;28;20029;-27
2022/03/17 04:05:24;;;;;;;6.80;4.20;;;;;;;15.23;46.09;97334.50;5032818;28;20083;-26
2022/03/17 04:07:51;;;;;;;6.13;3.70;;;;;;;15.24;46.00;97334.06;5033180;28;20017;-27
2022/03/17 04:10:16;;;;;;;5.22;3.67;;;;;;;15.23;45.98;97335.25;5033237;28;20420;-27
2022/03/17 04:12:42;;;;;;;7.13;3.55;;;;;;;15.26;45.81;97326.19;5033127;28;20098;-28
2022/03/17 04:15:08;;;;;;;7.20;4.00;;;;;;;15.27;45.85;97330.47;5032853;28;20667;-27
2022/03/17 04:17:33;;;;;;;5.90;3.67;;;;;;;15.26;45.66;97328.94;5036102;28;20025;-27
2022/03/17 04:19:59;;;;;;;5.00;3.53;;;;;;;15.19;45.95;97323.69;5037073;28;20037;-28
2022/03/17 04:22:24;;;;;;;5.10;3.40;;;;;;;15.15;45.87;97325.75;5035964;28;20117;-29
2022/03/17 04:24:50;;;;;;;6.55;3.72;;;;;;;15.07;46.36;97330.66;5037017;28;20032;-28
2022/03/17 04:27:16;;;;;;;5.75;4.00;;;;;;;15.18;46.03;97330.34;5037072;28;20034;-27
2022/03/17 04:29:41;;;;;;;6.97;3.88;;;;;;;15.18;46.00;97332.31;5037085;28;20116;-26
2022/03/17 04:32:07;;;;;;;6.18;3.70;;;;;;;15.18;45.70;97335.03;5036774;28;20048;-28
2022/03/17 04:34:33;;;;;;;5.38;3.85;;;;;;;15.12;45.98;97334.81;5035587;28;20112;-27
2022/03/17 04:36:58;;;;;;;5.45;3.97;;;;;;;15.15;46.09;97339.41;5036768;28;20069;-26
2022/03/17 04:39:24;;;;;;;7.25;3.72;;;;;;;15.13;45.78;97339.06;5036921;28;20099;-27
2022/03/17 04:41:50;;;;;;;5.43;3.65;;;;;;;15.15;45.82;97342.13;5036816;28;20092;-27
2022/03/17 04:44:16;;;;;;;5.60;3.85;;;;;;;15.15;45.55;97346.84;5036815;28;20029;-27
2022/03/17 04:46:41;;;;;;;7.07;3.90;;;;;;;15.16;45.85;97343.69;5036412;28;20497;-27
2022/03/17 04:49:09;;;;;;;7.40;4.70;;;;;;;15.16;45.87;97343.69;5036798;28;20151;-29
2022/03/17 04:51:35;;;;;;;5.85;3.70;;;;;;;15.14;45.74;97340.59;5036655;28;20025;-26
2022/03/17 04:54:00;;;;;;;4.78;3.63;;;;;;;15.19;45.51;97331.13;5036669;28;20037;-28
2022/03/17 04:56:26;;;;;;;6.68;4.25;;;;;;;15.22;45.57;97331.00;5035224;28;20108;-26
2022/03/17 04:58:52;;;;;;;6.03;3.70;;;;;;;15.14;45.80;97324.22;5036478;28;20029;-26
2022/03/17 05:01:18;;;;;;;4.00;3.60;;;;;;;15.20;45.50;97333.41;5036544;28;20031;-27
2022/03/17 05:03:44;;;;;;;6.15;3.55;;;;;;;15.18;45.48;97327.63;5036465;28;20044;-27
2022/03/17 05:06:14;;;;;;;6.18;3.53;;;;;;;15.19;45.39;97326.41;5036174;28;20482;-27
2022/03/17 05:08:40;;;;;;;6.40;4.18;;;;;;;15.20;45.46;97327.94;5036298;28;20048;-27
2022/03/17 05:11:07;;;;;;;5.95;3.83;;;;;;;15.16;45.46;97332.75;5036579;28;20470;-27
2022/03/17 05:13:34;;;;;;;5.10;3.78;;;;;;;15.15;45.54;97324.97;5036125;28;20052;-27
2022/03/17 05:15:59;;;;;;;4.18;3.33;;;;;;;15.20;45.42;97341.63;5036173;28;20022;-26
2022/03/17 05:18:26;;;;;;;5.45;3.80;;;;;;;15.16;45.35;97340.94;5034826;28;20352;-27
2022/03/17 05:20:51;;;;;;;7.53;3.75;;;;;;;15.21;45.23;97351.31;5035947;28;20025;-26
2022/03/17 05:23:18;;;;;;;5.35;3.67;;;;;;;15.16;45.27;97345.63;5036197;28;20495;-27
2022/03/17 05:25:46;;;;;;;5.85;4.00;;;;;;;15.24;45.03;97352.41;5036029;28;20025;-28
2022/03/17 05:28:12;;;;;;;5.13;3.92;;;;;;;15.20;45.15;97349.03;5035070;28;20033;-28
2022/03/17 05:30:39;;;;;;;4.93;3.40;;;;;;;15.14;45.31;97351.53;5036292;28;20021;-27
2022/03/17 05:33:06;;;;;;;6.50;3.75;;;;;;;15.16;45.30;97356.56;5036003;28;20026;-26
2022/03/17 05:35:32;;;;;;;4.70;3.45;;;;;;;15.09;45.47;97358.28;5034358;28;20021;-27
2022/03/17 05:37:59;;;;;;;5.53;3.78;;;;;;;15.14;45.35;97365.19;5035999;28;20028;-26
2022/03/17 05:40:25;;;;;;;6.20;3.72;;;;;;;15.17;45.12;97358.09;5035810;28;20030;-27
2022/03/17 05:42:53;;;;;;;5.07;3.70;;;;;;;15.16;45.06;97354.59;5035688;28;20397;-26
2022/03/17 05:45:20;;;;;;;5.18;3.95;;;;;;;15.21;44.97;97356.00;5035421;28;20423;-26
2022/03/17 05:47:47;;;;;;;5.65;3.58;;;;;;;15.15;45.01;97353.06;5035494;28;20030;-26
2022/03/17 05:50:15;;;;;;;7.05;4.00;;;;;;;15.15;45.18;97342.13;5035625;28;20026;-28
2022/03/17 05:52:43;;;;;;;5.35;3.85;;;;;;;15.12;45.30;97348.47;5035740;28;20448;-27
2022/03/17 05:55:10;;;;;;;4.45;3.47;;;;;;;15.15;45.17;97344.88;5021400;28;20479;-27
2022/03/17 05:57:37;;;;;;;6.15;3.90;;;;;;;15.17;44.90;97349.91;5013657;28;20029;-27
2022/03/17 06:00:08;;;;;;;5.63;3.45;;;;;;;15.10;45.22;97345.41;5012212;28;20057;-28
2022/03/17 06:02:34;;;;;;;5.40;3.67;;;;;;;15.09;45.08;97352.81;5013820;28;20033;-27
2022/03/17 06:05:00;;;;;;;6.00;3.63;;;;;;;15.13;45.17;97344.53;5012075;28;20057;-27
2022/03/17 06:07:35;;;;;;;5.43;3.88;;;;;;;15.16;44.99;97346.41;5013366;28;20030;-26
2022/03/17 06:10:01;;;;;;;5.25;3.80;;;;;;;15.00;45.51;97343.72;5012401;28;20120;-27
2022/03/17 06:12:26;;;;;;;5.00;3.97;;;;;;;15.10;44.90;97340.69;5013575;28;20117;-28
2022/03/17 06:14:52;;;;;;;5.32;3.58;;;;;;;15.08;45.03;97342.34;5013445;28;20033;-28
2022/03/17 06:17:18;;;;;;;5.82;3.60;;;;;;;15.13;45.00;97350.00;5012030;28;20137;-26
2022/03/17 06:19:43;;;;;;;4.85;3.65;;;;;;;15.09;45.11;97347.34;5013069;28;20057;-27
2022/03/17 06:22:09;;;;;;;4.47;3.78;;;;;;;15.10;44.91;97346.16;5013195;28;20030;-29
2022/03/17 06:24:34;;;;;;;5.47;3.40;;;;;;;15.12;44.87;97348.47;5013125;28;20045;-29
2022/03/17 06:27:00;;;;;;;5.20;3.20;;;;;;;15.09;45.01;97354.78;5013175;28;20470;-27
2022/03/17 06:29:25;;;;;;;5.82;3.53;;;;;;;15.08;44.98;97345.09;5013299;28;20022;-27
2022/03/17 06:31:51;;;;;;;7.10;4.40;;;;;;;15.12;44.97;97359.41;5026840;28;20450;-28
2022/03/17 06:34:16;;;;;;;7.07;3.70;;;;;;;15.13;45.01;97369.13;5032946;28;20025;-27
2022/03/17 06:36:42;;;;;;;7.45;4.13;;;;;;;14.94;45.50;97370.06;5032681;28;20386;-26
2022/03/17 06:39:07;;;;;;;5.43;3.83;;;;;;;15.05;45.03;97370.53;5031125;28;20060;-27
2022/03/17 06:41:33;;;;;;;4.93;3.63;;;;;;;15.09;44.84;97365.72;5031968;28;20389;-26
2022/03/17 06:43:59;;;;;;;7.13;4.30;;;;;;;15.08;45.11;97362.22;5032251;28;20071;-28
2022/03/17 06:46:24;;;;;;;5.25;3.58;;;;;;;15.14;44.92;97372.63;5032526;28;20117;-27
2022/03/17 06:48:50;;;;;;;6.50;3.80;;;;;;;15.12;44.82;97377.75;5032519;28;20099;-26
2022/03/17 06:51:16;;;;;;;7.55;3.80;;;;;;;15.14;44.91;97386.28;5032295;28;20120;-27
2022/03/17 06:53:41;;;;;;;7.95;3.75;;;;;;;15.20;44.83;97385.34;5032266;28;20079;-27
2022/03/17 06:56:07;;;;;;;5.07;4.00;;;;;;;15.12;44.94;97375.00;5032436;28;20083;-27
2022/03/17 06:58:32;;;;;;;10.40;4.63;;;;;;;15.14;44.90;97386.28;5032356;28;20037;-29
2022/03/17 07:01:07;;;;;;;4.93;3.72;;;;;;;15.11;44.92;97385.19;5160103;27;20131;-27
2022/03/17 07:03:33;;;;;;;9.05;4.47;;;;;;;15.14;44.73;97389.78;5150484;27;20540;-29
2022/03/17 07:05:58;;;;;;;6.18;3.80;;;;;;;15.14;44.80;97384.31;5150127;27;20114;-28
2022/03/17 07:08:24;;;;;;;5.60;3.83;;;;;;;15.08;45.01;97377.88;5148665;27;20494;-27
2022/03/17 07:10:49;;;;;;;5.60;4.03;;;;;;;15.14;44.83;97386.28;5150282;27;20064;-27
2022/03/17 07:13:15;;;;;;;5.97;3.80;;;;;;;15.12;44.83;97383.22;5150195;27;20026;-27
2022/03/17 07:15:41;;;;;;;4.75;3.50;;;;;;;15.15;44.78;97380.38;5150084;27;20018;-28
2022/03/17 07:18:06;;;;;;;7.40;4.03;;;;;;;15.14;44.77;97387.06;5149957;27;20490;-27
2022/03/17 07:20:32;;;;;;;5.75;4.00;;;;;;;15.09;44.99;97376.66;5150199;27;20447;-29
2022/03/17 07:22:57;;;;;;;4.78;3.70;;;;;;;15.06;45.16;97383.00;5150200;27;20058;-27
2022/03/17 07:25:24;;;;;;;5.00;3.90;;;;;;;15.18;44.63;97385.00;5150032;27;20459;-28
2022/03/17 07:27:49;;;;;;;6.28;3.80;;;;;;;15.16;44.83;97389.34;5131484;27;20383;-29
2022/03/17 07:30:20;;;;;;;6.65;3.70;;;;;;;15.15;44.97;97396.78;5149661;27;20011;-27
2022/03/17 07:32:59;;;;;;;7.00;3.90;;;;;;;15.14;44.87;97392.50;5149825;27;20466;-28
2022/03/17 07:35:25;;;;;;;6.22;3.90;;;;;;;15.10;45.09;97384.41;5149740;27;20497;-27
2022/03/17 07:37:52;;;;;;;7.45;3.90;;;;;;;14.87;45.56;97389.34;5149828;27;20451;-28
2022/03/17 07:40:17;;;;;;;6.93;4.25;;;;;;;15.01;45.20;97389.75;5149539;27;20023;-27
2022/03/17 07:42:43;;;;;;;6.25;3.70;;;;;;;15.07;44.94;97392.72;5149426;27;20027;-28
2022/03/17 07:45:09;;;;;;;6.03;3.90;;;;;;;14.99;45.11;97392.13;5149560;27;20122;-27
2022/03/17 07:47:34;;;;;;;5.55;3.63;;;;;;;15.01;45.03;97391.72;5149703;27;20068;-28
2022/03/17 07:50:04;;;;;;;6.65;4.65;;;;;;;15.15;44.90;97396.00;5149659;27;20383;-27
2022/03/17 07:52:30;;;;;;;7.72;4.25;;;;;;;14.98;45.48;97395.28;5149624;27;20022;-27
2022/03/17 07:54:56;;;;;;;8.68;4.30;;;;;;;14.93;45.50;97396.59;5149135;27;20029;-27
2022/03/17 07:57:22;;;;;;;7.15;4.25;;;;;;;14.91;45.55;97398.22;5149337;27;20030;-27
2022/03/17 07:59:47;;;;;;;6.28;4.80;;;;;;;15.09;45.01;97388.34;5139227;27;20474;-28
2022/03/17 08:02:13;;;;;;;5.72;4.22;;;;;;;15.06;45.13;97402.13;5128662;27;20015;-27
2022/03/17 08:04:40;;;;;;;6.32;4.53;;;;;;;15.03;45.24;97398.28;5127243;28;20027;-28
2022/03/17 08:07:05;;;;;;;6.32;4.60;;;;;;;15.12;45.17;97392.19;5128280;27;20027;-27
2022/03/17 08:09:31;;;;;;;7.10;4.60;;;;;;;15.12;44.89;97386.72;5126987;28;20020;-27
2022/03/17 08:11:57;;;;;;;6.45;4.20;;;;;;;15.00;45.26;97390.94;5117721;27;20360;-27
2022/03/17 08:14:22;;;;;;;8.32;4.85;;;;;;;15.10;44.96;97391.84;5114817;28;20066;-27
2022/03/17 08:16:48;;;;;;;6.85;4.70;;;;;;;14.91;45.62;97399.00;5114748;28;20031;-27
2022/03/17 08:19:14;;;;;;;7.55;4.68;;;;;;;14.85;45.70;97397.22;5114482;28;20020;-27
2022/03/17 08:21:40;;;;;;;7.65;4.78;;;;;;;14.94;45.43;97400.88;5114681;28;20059;-28
2022/03/17 08:24:07;;;;;;;7.78;4.57;;;;;;;15.07;45.25;97398.97;5114690;27;20462;-27
2022/03/17 08:26:33;;;;;;;10.38;5.65;;;;;;;14.90;45.66;97402.16;5114290;28;20063;-27
2022/03/17 08:29:00;;;;;;;7.43;4.85;;;;;;;14.39;46.78;97401.88;5113518;28;20012;-27
2022/03/17 08:31:26;;;;;;;10.23;5.70;;;;;;;14.29;47.45;97394.72;5102720;28;20024;-26
2022/03/17 08:33:52;;;;;;;9.35;5.13;;;;;;;14.62;46.46;97398.97;5093630;28;20028;-27
2022/03/17 08:36:18;;;;;;;13.43;5.63;;;;;;;14.52;47.18;97399.25;5093938;28;20033;-27
2022/03/17 08:38:43;;;;;;;10.60;5.93;;;;;;;14.61;46.88;97396.66;5093521;28;20536;-26
2022/03/17 08:41:09;;;;;;;9.38;5.47;;;;;;;14.49;46.98;97400.88;5093864;28;20812;-26
2022/03/17 08:43:34;;;;;;;12.52;5.20;;;;;;;14.72;46.52;97399.88;5093490;28;20512;-26
2022/03/17 08:51:28;;;;;;;10.95;4.88;;;;;;;14.80;46.38;97403.22;5093305;28;20073;-26
2022/03/17 08:53:56;;;;;;;10.07;5.15;;;;;;;14.74;46.52;97400.22;5093205;28;20028;-26
2022/03/17 08:56:22;;;;;;;5.72;4.63;;;;;;;14.76;46.77;97408.75;5093415;28;20031;-27
2022/03/17 08:58:47;;;;;;;6.43;4.80;;;;;;;14.68;46.61;97413.66;5095613;27;20129;-27
2022/03/17 09:01:13;;;;;;;7.65;4.60;;;;;;;14.61;46.60;97402.88;5136371;27;20027;-26
2022/03/17 09:03:39;;;;;;;8.25;4.85;;;;;;;14.42;47.43;97409.25;5117169;27;20030;-27
2022/03/17 09:06:04;;;;;;;7.75;4.45;;;;;;;14.87;46.10;97409.25;5135780;27;20498;-28
2022/03/17 09:08:30;;;;;;;6.88;4.47;;;;;;;14.92;45.90;97418.88;5136300;27;20421;-27
2022/03/17 09:10:57;;;;;;;6.30;4.20;;;;;;;14.89;45.94;97417.00;5136106;27;20019;-26
2022/03/17 09:13:25;;;;;;;10.30;4.53;;;;;;;14.86;46.23;97418.63;5136169;27;20050;-26
2022/03/17 09:15:51;;;;;;;5.20;4.30;;;;;;;14.80;46.19;97420.38;5115610;28;20027;-27
2022/03/17 09:18:17;;;;;;;6.95;4.25;;;;;;;14.84;46.15;97418.28;5115328;28;20117;-27
2022/03/17 09:20:42;;;;;;;8.10;4.65;;;;;;;14.86;46.43;97415.91;5115411;28;20107;-28
2022/03/17 09:23:08;;;;;;;6.28;4.43;;;;;;;14.88;46.17;97412.75;5114413;28;20027;-26
2022/03/17 09:25:35;;;;;;;8.90;4.78;;;;;;;14.81;46.58;97412.94;5115112;28;20023;-26
2022/03/17 09:28:02;;;;;;;7.63;5.00;;;;;;;14.90;46.01;97424.78;5115288;28;20055;-26
2022/03/17 09:30:27;;;;;;;6.50;4.50;;;;;;;15.02;45.26;97426.78;5115018;28;20054;-26
2022/03/17 09:32:54;;;;;;;9.38;5.00;;;;;;;15.05;45.77;97427.91;5115148;28;20066;-27
2022/03/17 09:35:20;;;;;;;10.88;4.70;;;;;;;15.09;45.32;97428.56;5096735;28;20027;-27
2022/03/17 09:37:46;;;;;;;7.25;4.43;;;;;;;15.02;45.61;97432.25;5115190;28;20032;-26
2022/03/17 09:40:12;;;;;;;7.25;4.55;;;;;;;14.66;46.70;97431.66;5114906;28;20019;-26
2022/03/17 09:42:38;;;;;;;8.10;4.22;;;;;;;14.77;46.20;97432.13;5124340;27;20175;-26
2022/03/17 09:45:06;;;;;;;7.05;4.35;;;;;;;15.04;45.34;97434.56;5135217;27;20106;-28
2022/03/17 09:47:44;;;;;;;5.97;4.05;;;;;;;15.05;45.14;97430.63;5135524;27;20022;-26
2022/03/17 09:50:14;;;;;;;7.05;4.13;;;;;;;15.14;44.78;97438.97;5135534;27;20412;-26
2022/03/17 09:52:41;;;;;;;7.90;4.22;;;;;;;15.18;44.70;97434.19;5135621;27;20015;-26
2022/03/17 09:55:12;;;;;;;8.35;4.07;;;;;;;15.22;44.95;97434.06;5135212;27;20419;-27
2022/03/17 09:57:40;;;;;;;6.88;3.88;;;;;;;15.19;44.68;97434.94;5106644;28;20031;-26
2022/03/17 10:00:06;;;;;;;8.38;3.72;;;;;;;15.24;44.57;97426.19;5124817;27;20042;-26
2022/03/17 10:02:34;;;;;;;5.65;4.40;;;;;;;15.28;44.32;97427.66;5135475;27;20144;-26
2022/03/17 10:05:01;;;;;;;5.25;4.00;;;;;;;15.24;44.64;97426.97;5134918;27;20030;-26
2022/03/17 10:07:27;;;;;;;7.13;4.53;;;;;;;15.30;44.44;97429.94;5116810;27;20467;-26
2022/03/17 10:09:52;;;;;;;6.50;4.55;;;;;;;15.28;44.40;97424.91;5134977;27;20023;-26
2022/03/17 10:12:23;;;;;;;5.75;4.13;;;;;;;15.30;44.30;97430.72;5134944;27;20119;-27
2022/03/17 10:14:53;;;;;;;6.80;3.90;;;;;;;15.29;44.37;97423.72;5135047;27;20026;-26
2022/03/17 10:17:34;;;;;;;6.03;4.22;;;;;;;15.28;44.37;97427.66;5116745;27;20031;-27
2022/03/17 10:20:28;;;;;;;7.82;4.47;;;;;;;15.32;44.21;97422.09;5116567;27;20489;-26
2022/03/17 10:22:58;;;;;;;4.82;4.10;;;;;;;15.30;44.38;97427.22;5134895;27;20455;-27
2022/03/17 10:25:25;;;;;;;6.88;3.90;;;;;;;15.27;44.86;97426.13;5134748;27;20467;-27
2022/03/17 10:27:54;;;;;;;4.88;3.75;;;;;;;15.34;44.27;97425.13;5134937;27;20067;-26
2022/03/17 10:30:33;;;;;;;8.27;4.20;;;;;;;15.32;44.53;97422.84;5134559;27;20528;-27
2022/03/17 10:33:20;;;;;;;6.00;4.10;;;;;;;15.35;44.17;97426.66;5134982;27;20019;-26
2022/03/17 10:35:48;;;;;;;5.82;4.00;;;;;;;15.33;44.38;97424.38;5134554;27;20106;-26
2022/03/17 10:38:19;;;;;;;4.88;3.78;;;;;;;15.32;44.50;97428.31;5134741;27;20026;-26
2022/03/17 10:40:59;;;;;;;6.60;4.15;;;;;;;15.37;44.23;97427.78;5134546;27;20479;-26
2022/03/17 10:43:25;;;;;;;8.77;4.45;;;;;;;15.38;44.18;97426.56;5134349;27;20031;-26
2022/03/17 10:46:22;;;;;;;6.45;4.15;;;;;;;15.41;44.06;97420.25;5134487;27;20049;-26
2022/03/17 10:48:56;;;;;;;5.70;3.97;;;;;;;15.38;44.15;97417.59;5134552;27;20485;-26
2022/03/17 10:51:40;;;;;;;6.60;4.38;;;;;;;15.36;44.15;97412.56;5134308;27;20019;-26
2022/03/17 10:54:20;;;;;;;6.60;3.83;;;;;;;15.37;44.03;97408.66;5134709;27;20083;-27
2022/03/17 10:57:02;;;;;;;7.40;4.18;;;;;;;15.36;44.01;97411.81;5134255;27;20053;-26
2022/03/17 10:59:47;;;;;;;7.60;4.00;;;;;;;15.34;44.16;97408.75;5131885;27;20122;-27
2022/03/17 11:02:17;;;;;;;7.85;3.97;;;;;;;15.30;44.39;97405.34;5132088;27;20026;-26
2022/03/17 11:04:44;;;;;;;9.48;4.93;;;;;;;15.32;44.73;97406.47;5134270;27;20027;-27
2022/03/17 11:07:15;;;;;;;6.25;3.78;;;;;;;15.33;44.35;97405.22;5134246;27;20026;-26
2022/03/17 11:09:43;;;;;;;6.20;3.95;;;;;;;15.37;44.18;97403.19;5134582;27;20027;-27
2022/03/17 11:12:15;;;;;;;10.98;4.53;;;;;;;15.34;44.48;97392.34;5115672;28;20019;-27
2022/03/17 11:14:44;;;;;;;7.15;3.85;;;;;;;15.32;44.47;97401.00;5134212;27;20046;-26
2022/03/17 11:17:12;;;;;;;9.20;4.07;;;;;;;15.36;44.28;97393.44;5134035;27;20023;-26
2022/03/17 11:19:42;;;;;;;9.20;4.40;;;;;;;15.37;44.24;97397.72;5134380;27;20058;-27
2022/03/17 11:22:10;;;;;;;7.82;4.22;;;;;;;15.34;44.07;97387.63;5134607;27;20031;-26
2022/03/17 11:24:38;;;;;;;10.85;4.40;;;;;;;15.34;44.37;97397.81;5134186;27;20098;-27
2022/03/17 11:27:14;;;;;;;8.32;4.38;;;;;;;15.40;44.36;97382.41;5134188;27;20094;-27
2022/03/17 11:29:44;;;;;;;6.32;4.30;;;;;;;15.27;44.68;97370.69;5134174;27;20084;-27
2022/03/17 11:32:31;;;;;;;7.03;4.50;;;;;;;15.37;44.31;97375.06;5134099;27;20027;-27
2022/03/17 11:35:11;;;;;;;6.00;4.10;;;;;;;15.34;44.63;97371.25;5134023;27;20030;-26
2022/03/17 11:37:37;;;;;;;6.25;3.85;;;;;;;15.29;44.49;97377.25;5134023;27;20504;-26
2022/03/17 11:40:08;;;;;;;7.03;4.13;;;;;;;15.37;44.59;97375.06;5133790;27;20055;-27
2022/03/17 11:42:46;;;;;;;8.57;4.53;;;;;;;15.31;44.41;97369.41;5133867;27;20356;-27
2022/03/17 11:45:15;;;;;;;6.07;4.20;;;;;;;15.34;44.49;97362.28;5134210;27;20387;-26
2022/03/17 11:47:52;;;;;;;6.82;4.38;;;;;;;15.32;44.55;97361.97;5137433;27;20087;-26
2022/03/17 11:50:42;;;;;;;10.27;4.28;;;;;;;15.35;44.37;97355.59;5137712;27;20507;-26